Time;durP1;ratioP1;P1;durP2;ratioP2;P2;SDS_P1;SDS_P2;PMS_P1;PMS_P2;Temp;Humidity;BMP_temperature;BMP_pressure;BME280_temperature;BME280_humidity;BME280_pressure;Samples;Min_cycle;Max_cycle;Signal;HPM_P1;HPM_P2
2022/04/11 00:02:13;;;;;;;2.05;1.80;;;12.30;67.80;;;;;;5055948;28;20070;-72
2022/04/11 00:04:39;;;;;;;1.90;1.80;;;12.30;67.80;;;;;;5055947;28;20036;-72
2022/04/11 00:07:05;;;;;;;1.60;1.50;;;12.30;67.70;;;;;;5054352;28;20053;-71
2022/04/11 00:09:30;;;;;;;1.65;1.55;;;12.30;67.70;;;;;;5055924;28;20112;-72
2022/04/11 00:11:56;;;;;;;1.60;1.50;;;12.30;67.60;;;;;;5055141;28;20025;-72
2022/04/11 00:14:25;;;;;;;1.83;1.73;;;12.30;67.60;;;;;;5054812;28;20106;-72
2022/04/11 00:16:51;;;;;;;1.85;1.65;;;12.30;67.50;;;;;;5055669;28;20476;-71
2022/04/11 00:19:17;;;;;;;1.60;1.50;;;12.30;67.40;;;;;;5055407;28;20036;-71
2022/04/11 00:21:42;;;;;;;1.88;1.77;;;12.30;67.40;;;;;;5055633;28;20052;-71
2022/04/11 00:24:09;;;;;;;1.42;1.42;;;12.30;68.00;;;;;;5055485;28;20111;-71
2022/04/11 00:26:35;;;;;;;1.52;1.42;;;12.30;67.30;;;;;;5055501;28;20078;-71
2022/04/11 00:29:01;;;;;;;1.52;1.42;;;12.30;67.30;;;;;;5055225;28;20024;-71
2022/04/11 00:31:26;;;;;;;1.33;1.25;;;12.30;67.20;;;;;;5055572;28;20419;-72
2022/04/11 00:33:52;;;;;;;1.48;1.40;;;12.30;67.20;;;;;;5055313;28;20104;-71
2022/04/11 00:36:18;;;;;;;1.60;1.50;;;12.30;67.10;;;;;;5055329;28;20115;-72
2022/04/11 00:38:43;;;;;;;1.42;1.30;;;12.30;67.10;;;;;;5055000;28;20025;-70
2022/04/11 00:41:09;;;;;;;1.50;1.40;;;12.30;67.00;;;;;;5055305;28;20056;-71
2022/04/11 00:43:37;;;;;;;1.45;1.38;;;12.30;67.00;;;;;;5055244;28;20070;-71
2022/04/11 00:46:05;;;;;;;1.50;1.40;;;12.30;66.90;;;;;;5054208;28;20427;-71
2022/04/11 00:48:31;;;;;;;1.40;1.30;;;12.30;66.90;;;;;;5055107;28;20067;-71
2022/04/11 00:51:02;;;;;;;1.45;1.35;;;12.30;66.80;;;;;;5054810;28;20507;-71
2022/04/11 00:53:30;;;;;;;1.27;1.17;;;12.30;66.80;;;;;;5055050;28;20029;-71
2022/04/11 00:55:57;;;;;;;1.30;1.30;;;12.30;66.80;;;;;;5054752;28;20135;-71
2022/04/11 00:58:24;;;;;;;1.10;1.10;;;12.30;66.70;;;;;;5054911;28;20525;-71
2022/04/11 01:00:50;;;;;;;1.15;1.15;;;12.30;66.70;;;;;;5054793;28;20025;-71
2022/04/11 01:03:15;;;;;;;1.50;1.40;;;12.30;66.60;;;;;;5053268;28;20116;-72
2022/04/11 01:05:42;;;;;;;1.23;1.23;;;12.30;66.70;;;;;;5054795;28;20483;-71
2022/04/11 01:08:09;;;;;;;1.10;1.10;;;12.30;66.60;;;;;;5054199;28;20410;-72
2022/04/11 01:10:36;;;;;;;1.10;1.10;;;12.30;66.50;;;;;;5054778;28;20074;-71
2022/04/11 01:13:02;;;;;;;1.10;1.10;;;12.30;66.50;;;;;;5055277;28;20056;-72
2022/04/11 01:15:28;;;;;;;1.35;1.20;;;12.30;66.50;;;;;;5054345;28;20364;-72
2022/04/11 01:17:54;;;;;;;1.10;1.10;;;12.30;66.40;;;;;;5054426;28;20039;-71
2022/04/11 01:20:20;;;;;;;1.10;1.10;;;12.30;66.40;;;;;;5054202;28;20021;-72
2022/04/11 01:22:46;;;;;;;1.20;1.15;;;12.30;66.30;;;;;;5053490;28;20516;-72
2022/04/11 01:25:17;;;;;;;1.10;1.10;;;12.30;66.30;;;;;;5052913;28;20041;-72
2022/04/11 01:27:43;;;;;;;1.00;1.00;;;12.30;66.30;;;;;;5054522;28;20033;-72
2022/04/11 01:30:11;;;;;;;1.20;1.20;;;12.30;66.20;;;;;;5054384;28;20410;-72
2022/04/11 01:32:37;;;;;;;1.10;1.10;;;12.30;66.20;;;;;;5054222;28;20055;-72
2022/04/11 01:35:04;;;;;;;1.10;1.10;;;12.30;66.20;;;;;;5054012;28;20053;-71
2022/04/11 01:37:30;;;;;;;1.02;1.02;;;12.30;66.20;;;;;;5054543;28;20471;-71
2022/04/11 01:39:55;;;;;;;1.13;1.13;;;12.30;66.10;;;;;;5054089;28;20059;-71
2022/04/11 01:42:21;;;;;;;1.20;1.20;;;12.30;66.10;;;;;;5053995;28;20025;-71
2022/04/11 01:44:47;;;;;;;1.00;1.00;;;12.20;66.00;;;;;;5054113;28;20036;-71
2022/04/11 01:47:13;;;;;;;1.20;1.20;;;12.20;66.00;;;;;;5053906;28;20037;-70
2022/04/11 01:49:39;;;;;;;1.10;1.10;;;12.30;66.00;;;;;;5053893;28;20375;-70
2022/04/11 01:52:04;;;;;;;1.10;1.10;;;12.30;66.00;;;;;;5053935;28;20059;-70
2022/04/11 01:54:30;;;;;;;1.00;1.00;;;12.30;65.90;;;;;;5054092;28;20120;-70
2022/04/11 01:56:56;;;;;;;1.15;1.10;;;12.30;65.90;;;;;;5053782;28;20156;-70
2022/04/11 01:59:22;;;;;;;1.00;1.00;;;12.20;65.80;;;;;;5054041;28;20085;-70
2022/04/11 02:01:47;;;;;;;1.00;1.00;;;12.30;65.80;;;;;;5053605;28;20029;-70
2022/04/11 02:04:13;;;;;;;1.15;1.13;;;12.30;65.80;;;;;;5053548;28;20107;-70
2022/04/11 02:06:38;;;;;;;1.20;1.10;;;12.30;65.80;;;;;;5053533;28;20558;-70
2022/04/11 02:09:04;;;;;;;1.10;1.10;;;12.30;65.70;;;;;;5054277;28;20117;-70
2022/04/11 02:11:30;;;;;;;1.17;1.17;;;12.30;65.70;;;;;;5053648;28;20053;-70
2022/04/11 02:13:55;;;;;;;1.02;1.02;;;12.20;65.60;;;;;;5053622;28;20041;-71
2022/04/11 02:16:23;;;;;;;1.00;1.00;;;12.30;65.70;;;;;;5052406;28;20053;-70
2022/04/11 02:18:49;;;;;;;1.13;1.13;;;12.30;65.60;;;;;;5053235;28;20489;-70
2022/04/11 02:21:14;;;;;;;1.10;1.10;;;12.30;65.50;;;;;;5053267;28;20021;-70
2022/04/11 02:23:40;;;;;;;0.90;0.90;;;12.30;65.50;;;;;;5053222;28;20029;-70
2022/04/11 02:26:06;;;;;;;1.10;1.10;;;12.30;65.50;;;;;;5053346;28;20086;-70
2022/04/11 02:28:31;;;;;;;0.90;0.90;;;12.30;65.50;;;;;;5053288;28;20025;-70
2022/04/11 02:30:57;;;;;;;1.10;1.10;;;12.30;65.50;;;;;;5053437;28;20456;-70
2022/04/11 02:33:23;;;;;;;1.00;1.00;;;12.30;65.40;;;;;;5052994;28;20029;-69
2022/04/11 02:35:48;;;;;;;1.00;1.00;;;12.30;65.40;;;;;;5056810;28;20024;-70
2022/04/11 02:38:14;;;;;;;1.23;1.23;;;12.30;65.40;;;;;;5057428;28;20033;-70
2022/04/11 02:40:39;;;;;;;0.95;0.95;;;12.30;65.40;;;;;;5057509;28;20025;-70
2022/04/11 02:43:05;;;;;;;1.40;1.30;;;12.20;65.30;;;;;;5057571;28;20033;-70
2022/04/11 02:45:31;;;;;;;1.52;1.42;;;12.30;65.30;;;;;;5057449;28;20044;-70
2022/04/11 02:47:57;;;;;;;1.48;1.40;;;12.20;65.20;;;;;;5056939;28;20040;-70
2022/04/11 02:50:22;;;;;;;1.40;1.30;;;12.20;65.20;;;;;;5057269;28;20474;-70
2022/04/11 02:52:48;;;;;;;1.33;1.23;;;12.30;65.30;;;;;;5057414;28;20027;-70
2022/04/11 02:55:13;;;;;;;1.33;1.25;;;12.20;65.20;;;;;;5057168;28;20025;-70
2022/04/11 02:57:39;;;;;;;1.60;1.50;;;12.20;65.20;;;;;;5057126;28;20459;-70
2022/04/11 03:00:08;;;;;;;1.50;1.40;;;12.20;65.10;;;;;;5057226;28;20372;-71
2022/04/11 03:02:33;;;;;;;1.35;1.25;;;12.20;65.10;;;;;;5056805;28;20383;-70
2022/04/11 03:04:59;;;;;;;1.40;1.30;;;12.20;65.10;;;;;;5056933;28;20025;-71
2022/04/11 03:07:27;;;;;;;1.02;1.02;;;12.20;65.00;;;;;;5057173;28;20064;-71
2022/04/11 03:09:53;;;;;;;1.20;1.20;;;12.30;65.10;;;;;;5056749;28;20017;-71
2022/04/11 03:12:19;;;;;;;1.17;1.10;;;12.20;65.00;;;;;;5056632;28;20029;-70
2022/04/11 03:14:44;;;;;;;1.40;1.30;;;12.30;65.00;;;;;;5056585;28;20518;-70
2022/04/11 03:17:10;;;;;;;1.00;1.00;;;12.20;64.90;;;;;;5056697;28;20044;-71
2022/04/11 03:19:36;;;;;;;1.00;1.00;;;12.20;64.90;;;;;;5056796;28;20025;-71
2022/04/11 03:22:01;;;;;;;1.40;1.30;;;12.20;64.90;;;;;;5056503;28;20063;-70
2022/04/11 03:24:27;;;;;;;1.00;1.00;;;12.30;64.90;;;;;;5056693;28;20432;-70
2022/04/11 03:26:53;;;;;;;1.20;1.20;;;12.30;64.90;;;;;;5056483;28;20040;-70
2022/04/11 03:29:18;;;;;;;1.10;1.10;;;12.30;64.90;;;;;;5056392;28;20114;-70
2022/04/11 03:31:46;;;;;;;1.05;1.05;;;12.30;64.80;;;;;;5056497;28;20025;-72
2022/04/11 03:34:12;;;;;;;1.10;1.10;;;12.30;64.90;;;;;;5056600;28;20463;-71
2022/04/11 03:36:37;;;;;;;1.02;1.02;;;12.20;64.80;;;;;;5056543;28;20113;-71
2022/04/11 03:39:03;;;;;;;1.23;1.13;;;12.20;64.70;;;;;;5056349;28;20029;-71
2022/04/11 03:41:29;;;;;;;1.50;1.40;;;12.30;64.70;;;;;;5056353;28;20390;-71
2022/04/11 03:43:54;;;;;;;1.25;1.15;;;12.30;64.70;;;;;;5056194;28;20066;-70
2022/04/11 03:46:20;;;;;;;1.13;1.10;;;12.30;64.70;;;;;;5054988;28;20029;-71
2022/04/11 03:48:46;;;;;;;1.10;1.10;;;12.30;64.60;;;;;;5056329;28;20032;-71
2022/04/11 03:51:11;;;;;;;1.20;1.20;;;12.30;64.60;;;;;;5054912;28;20021;-71
2022/04/11 03:53:37;;;;;;;1.60;1.50;;;12.30;64.60;;;;;;5056074;28;20021;-69
2022/04/11 03:56:03;;;;;;;1.35;1.27;;;12.30;64.60;;;;;;5055941;28;20021;-70
2022/04/11 03:58:28;;;;;;;19.92;16.30;;;12.30;64.50;;;;;;5055857;28;20497;-71
2022/04/11 04:00:54;;;;;;;24.67;19.50;;;12.20;62.40;;;;;;5055904;28;20100;-70
2022/04/11 04:03:19;;;;;;;14.57;10.52;;;11.90;61.30;;;;;;5056139;28;20130;-73
2022/04/11 04:05:46;;;;;;;9.75;7.10;;;11.50;62.50;;;;;;5055709;28;20049;-73
2022/04/11 04:08:13;;;;;;;6.97;5.40;;;11.30;62.90;;;;;;5052527;28;20045;-72
2022/04/11 04:10:40;;;;;;;6.13;4.47;;;11.20;63.00;;;;;;5042940;28;20029;-72
2022/04/11 04:13:06;;;;;;;4.90;3.70;;;11.20;63.90;;;;;;5038716;28;20025;-69
2022/04/11 04:15:32;;;;;;;4.78;3.50;;;11.10;64.30;;;;;;5035335;28;20036;-71
2022/04/11 04:17:58;;;;;;;3.75;3.00;;;11.20;64.60;;;;;;5035612;28;20040;-65
2022/04/11 04:20:26;;;;;;;3.97;3.20;;;11.20;64.70;;;;;;5037499;28;20033;-69
2022/04/11 04:22:55;;;;;;;2.90;2.58;;;11.30;64.80;;;;;;5046055;28;20083;-66
2022/04/11 04:25:21;;;;;;;2.50;2.30;;;11.30;65.70;;;;;;5040140;28;20357;-66
2022/04/11 04:27:46;;;;;;;2.67;2.28;;;11.40;65.90;;;;;;5037130;28;20100;-66
2022/04/11 04:30:12;;;;;;;2.42;2.22;;;11.60;65.90;;;;;;5045910;28;20061;-67
2022/04/11 04:32:39;;;;;;;2.17;2.00;;;11.70;66.00;;;;;;5035249;28;20112;-65
2022/04/11 04:35:05;;;;;;;2.22;2.03;;;11.70;65.90;;;;;;5041303;28;20021;-66
2022/04/11 04:37:31;;;;;;;2.10;1.90;;;11.70;65.80;;;;;;5039205;28;20056;-66
2022/04/11 04:39:57;;;;;;;2.10;1.90;;;11.80;65.90;;;;;;5033365;28;20029;-66
2022/04/11 04:42:25;;;;;;;2.30;2.10;;;11.80;65.80;;;;;;5034314;28;20067;-66
2022/04/11 04:44:50;;;;;;;2.20;2.00;;;11.80;65.80;;;;;;5034480;28;20044;-66
2022/04/11 04:47:16;;;;;;;2.63;1.90;;;11.90;65.80;;;;;;5034544;28;20033;-66
2022/04/11 04:49:43;;;;;;;2.10;1.90;;;11.90;65.70;;;;;;5033085;28;20025;-66
2022/04/11 04:52:09;;;;;;;1.85;1.75;;;11.90;65.70;;;;;;5039768;28;20166;-67
2022/04/11 04:54:35;;;;;;;2.20;1.98;;;12.00;65.70;;;;;;5054286;28;20052;-66
2022/04/11 04:57:01;;;;;;;1.95;1.80;;;12.00;65.60;;;;;;5053780;28;20386;-66
2022/04/11 04:59:26;;;;;;;2.08;1.83;;;12.00;65.50;;;;;;5054177;28;20029;-66
2022/04/11 05:01:52;;;;;;;1.95;1.85;;;12.10;65.60;;;;;;5047873;28;20036;-66
2022/04/11 05:04:18;;;;;;;1.75;1.65;;;12.10;65.50;;;;;;5044539;28;20037;-66
2022/04/11 05:06:43;;;;;;;1.65;1.55;;;12.10;65.50;;;;;;5041959;28;20505;-66
2022/04/11 05:09:09;;;;;;;1.73;1.63;;;12.10;65.40;;;;;;5042528;28;20040;-65
2022/04/11 05:11:34;;;;;;;2.55;1.60;;;12.20;65.40;;;;;;5041870;28;20037;-67
2022/04/11 05:14:00;;;;;;;1.70;1.60;;;12.20;65.40;;;;;;5032881;28;20350;-66
2022/04/11 05:16:26;;;;;;;1.70;1.60;;;12.30;65.40;;;;;;5032886;28;20026;-66
2022/04/11 05:18:51;;;;;;;1.80;1.70;;;12.30;65.30;;;;;;5034087;28;20040;-66
2022/04/11 05:21:17;;;;;;;1.73;1.63;;;12.30;65.20;;;;;;5039358;28;20463;-65
2022/04/11 05:23:43;;;;;;;1.67;1.58;;;12.40;65.20;;;;;;5032815;28;20026;-66
2022/04/11 05:26:09;;;;;;;1.65;1.55;;;12.40;65.10;;;;;;5031651;28;20044;-67
2022/04/11 05:28:35;;;;;;;1.88;1.77;;;12.40;65.00;;;;;;5033524;28;20449;-66
2022/04/11 05:31:01;;;;;;;1.60;1.50;;;12.50;64.90;;;;;;5033601;28;20460;-66
2022/04/11 05:33:27;;;;;;;2.00;1.80;;;12.50;64.90;;;;;;5031904;28;20021;-67
2022/04/11 05:35:53;;;;;;;1.80;1.70;;;12.50;64.80;;;;;;5033551;28;20036;-67
2022/04/11 05:38:19;;;;;;;1.60;1.50;;;12.50;64.80;;;;;;5033269;28;20092;-67
2022/04/11 05:40:46;;;;;;;2.03;1.83;;;12.60;64.80;;;;;;5033362;28;20060;-66
2022/04/11 05:43:15;;;;;;;1.70;1.60;;;12.60;64.70;;;;;;5032369;28;20029;-65
2022/04/11 05:45:41;;;;;;;1.80;1.70;;;12.60;64.70;;;;;;5033237;28;20116;-66
2022/04/11 05:48:08;;;;;;;1.50;1.40;;;12.60;64.70;;;;;;5033180;28;20033;-65
2022/04/11 05:50:33;;;;;;;1.58;1.48;;;12.60;64.60;;;;;;5033204;28;20033;-67
2022/04/11 05:53:00;;;;;;;1.70;1.60;;;12.70;64.60;;;;;;5033137;28;20384;-66
2022/04/11 05:55:26;;;;;;;1.85;1.70;;;12.70;64.80;;;;;;5032612;28;20017;-67
2022/04/11 05:57:52;;;;;;;1.58;1.48;;;12.70;64.90;;;;;;5033274;28;20438;-67
2022/04/11 06:00:19;;;;;;;1.60;1.50;;;12.80;64.90;;;;;;5031777;28;20032;-66
2022/04/11 06:02:45;;;;;;;2.55;1.45;;;12.80;64.90;;;;;;5033039;28;20083;-65
2022/04/11 06:05:11;;;;;;;1.42;1.30;;;12.90;65.10;;;;;;5032985;28;20053;-65
2022/04/11 06:07:37;;;;;;;1.90;1.70;;;12.90;65.10;;;;;;5032700;28;20472;-65
2022/04/11 06:10:03;;;;;;;1.52;1.42;;;12.90;65.10;;;;;;5032286;28;20487;-66
2022/04/11 06:12:29;;;;;;;1.50;1.40;;;13.00;65.10;;;;;;5035151;28;20036;-65
2022/04/11 06:14:55;;;;;;;1.83;1.50;;;13.10;65.10;;;;;;5040513;28;20017;-66
2022/04/11 06:17:24;;;;;;;1.80;1.70;;;13.10;65.10;;;;;;5041661;28;20041;-66
2022/04/11 06:19:54;;;;;;;1.75;1.65;;;13.10;65.00;;;;;;5040610;28;20025;-67
2022/04/11 06:22:20;;;;;;;2.13;1.60;;;13.10;64.80;;;;;;5041011;28;20468;-66
2022/04/11 06:24:47;;;;;;;2.15;1.63;;;13.10;64.80;;;;;;5040290;28;20041;-66
2022/04/11 06:27:13;;;;;;;1.50;1.40;;;13.20;64.80;;;;;;5040015;28;20037;-67
2022/04/11 06:29:39;;;;;;;1.60;1.50;;;13.20;64.80;;;;;;5041593;28;20032;-66
2022/04/11 06:32:05;;;;;;;1.80;1.40;;;13.20;64.70;;;;;;5043808;28;20056;-67
2022/04/11 06:34:35;;;;;;;2.80;1.50;;;13.20;64.70;;;;;;5051628;28;20029;-66
2022/04/11 06:37:01;;;;;;;3.90;1.52;;;13.30;64.70;;;;;;5050224;28;20064;-67
2022/04/11 06:39:28;;;;;;;1.77;1.65;;;13.20;64.50;;;;;;5051980;28;20108;-67
2022/04/11 06:41:53;;;;;;;1.60;1.50;;;13.30;64.60;;;;;;5051869;28;20028;-67
2022/04/11 06:44:19;;;;;;;1.90;1.40;;;13.30;64.50;;;;;;5049663;28;20034;-66
2022/04/11 06:46:45;;;;;;;1.67;1.58;;;13.30;64.50;;;;;;5051590;28;20033;-67
2022/04/11 06:49:11;;;;;;;2.00;1.52;;;13.40;64.50;;;;;;5051863;28;20121;-66
2022/04/11 06:51:37;;;;;;;2.75;1.42;;;13.40;64.50;;;;;;5050949;28;20063;-65
2022/04/11 06:54:02;;;;;;;3.35;1.58;;;13.40;64.50;;;;;;5051698;28;20029;-64
2022/04/11 06:56:28;;;;;;;1.60;1.50;;;13.50;64.40;;;;;;5049918;28;20467;-65
2022/04/11 06:58:54;;;;;;;1.85;1.60;;;13.60;64.30;;;;;;5050350;28;20115;-67
2022/04/11 07:01:19;;;;;;;2.10;1.58;;;13.70;64.20;;;;;;5050237;28;20094;-66
2022/04/11 07:03:45;;;;;;;2.05;1.50;;;13.80;64.00;;;;;;5051176;28;20191;-66
2022/04/11 07:06:11;;;;;;;2.10;1.58;;;13.90;63.90;;;;;;5051077;28;20114;-65
2022/04/11 07:08:37;;;;;;;2.10;1.73;;;13.90;63.70;;;;;;5046674;28;20403;-66
2022/04/11 07:11:04;;;;;;;1.83;1.73;;;13.90;63.70;;;;;;5041134;28;20022;-67
2022/04/11 07:13:30;;;;;;;1.77;1.60;;;13.90;63.60;;;;;;5039807;28;20151;-66
2022/04/11 07:15:56;;;;;;;1.70;1.60;;;14.00;63.50;;;;;;5039602;28;20053;-66
2022/04/11 07:18:27;;;;;;;1.63;1.52;;;14.00;63.50;;;;;;5031370;28;20033;-67
2022/04/11 07:20:53;;;;;;;1.67;1.58;;;14.10;63.50;;;;;;5039396;28;20017;-68
2022/04/11 07:23:19;;;;;;;1.40;1.30;;;14.20;63.40;;;;;;5043114;28;20491;-68
2022/04/11 07:25:44;;;;;;;2.28;1.48;;;14.20;63.30;;;;;;5039187;28;20030;-66
2022/04/11 07:28:10;;;;;;;1.65;1.42;;;14.20;63.20;;;;;;5038506;28;20029;-66
2022/04/11 07:30:36;;;;;;;1.52;1.42;;;14.20;63.10;;;;;;5055660;28;20116;-65
2022/04/11 07:33:01;;;;;;;1.92;1.40;;;14.20;63.10;;;;;;5051732;28;20372;-65
2022/04/11 07:35:27;;;;;;;1.60;1.50;;;14.20;63.10;;;;;;5037063;28;20491;-68
2022/04/11 07:37:53;;;;;;;2.00;1.40;;;14.20;63.10;;;;;;5041682;28;20116;-65
2022/04/11 07:40:19;;;;;;;1.48;1.38;;;14.20;63.00;;;;;;5052713;28;20044;-65
2022/04/11 07:42:44;;;;;;;1.35;1.25;;;14.20;62.90;;;;;;5044442;28;20022;-65
2022/04/11 07:45:10;;;;;;;1.77;1.45;;;14.20;62.90;;;;;;5037246;28;20109;-68
2022/04/11 07:47:35;;;;;;;1.70;1.60;;;14.30;63.50;;;;;;5035151;28;20383;-68
2022/04/11 07:50:02;;;;;;;1.60;1.50;;;14.30;62.90;;;;;;5035024;28;20100;-68
2022/04/11 07:52:28;;;;;;;1.42;1.33;;;14.30;62.80;;;;;;5033930;28;20716;-68
2022/04/11 07:54:53;;;;;;;1.30;1.20;;;14.30;62.80;;;;;;5035587;28;20065;-65
2022/04/11 07:57:19;;;;;;;1.40;1.30;;;14.30;62.70;;;;;;5035494;28;20463;-68
2022/04/11 07:59:45;;;;;;;1.63;1.52;;;14.30;62.70;;;;;;5035153;28;20032;-65
2022/04/11 08:02:11;;;;;;;1.42;1.33;;;14.30;62.70;;;;;;5033773;28;20479;-65
2022/04/11 08:04:37;;;;;;;1.55;1.45;;;14.40;62.60;;;;;;5033744;28;20022;-65
2022/04/11 08:07:03;;;;;;;1.50;1.40;;;14.40;62.60;;;;;;5035437;28;20136;-67
2022/04/11 08:09:29;;;;;;;1.52;1.40;;;14.40;62.70;;;;;;5034919;28;20034;-65
2022/04/11 08:11:55;;;;;;;1.52;1.40;;;14.50;62.70;;;;;;5035078;28;20067;-65
2022/04/11 08:14:20;;;;;;;1.50;1.40;;;14.50;63.20;;;;;;5034859;28;20030;-66
2022/04/11 08:16:46;;;;;;;1.60;1.50;;;14.50;62.50;;;;;;5034753;28;20029;-66
2022/04/11 08:19:12;;;;;;;1.48;1.38;;;14.60;62.30;;;;;;5034758;28;20051;-66
2022/04/11 08:21:38;;;;;;;1.40;1.30;;;14.70;62.20;;;;;;5048831;28;20525;-67
2022/04/11 08:24:04;;;;;;;1.65;1.50;;;14.70;62.20;;;;;;5055102;28;20025;-66
2022/04/11 08:26:30;;;;;;;1.60;1.48;;;14.70;62.10;;;;;;5054546;28;20368;-66
2022/04/11 08:28:55;;;;;;;1.30;1.20;;;14.70;62.00;;;;;;5054718;28;20078;-66
2022/04/11 08:31:21;;;;;;;1.67;1.58;;;14.70;62.00;;;;;;5054893;28;20150;-65
2022/04/11 08:33:47;;;;;;;1.40;1.30;;;14.70;61.90;;;;;;5053689;28;20025;-65
2022/04/11 08:36:12;;;;;;;1.17;1.10;;;14.70;61.90;;;;;;5054555;28;20029;-66
2022/04/11 08:38:38;;;;;;;1.58;1.48;;;14.70;61.80;;;;;;5054677;28;20036;-65
2022/04/11 08:41:04;;;;;;;1.50;1.40;;;14.70;61.70;;;;;;5054653;28;20032;-66
2022/04/11 08:43:31;;;;;;;1.55;1.45;;;14.70;61.70;;;;;;5054189;28;20026;-65
2022/04/11 08:46:00;;;;;;;1.42;1.33;;;14.60;61.70;;;;;;5054451;28;20029;-66
2022/04/11 08:48:26;;;;;;;1.50;1.40;;;14.60;61.80;;;;;;5054051;28;20112;-66
2022/04/11 08:50:52;;;;;;;1.40;1.30;;;14.60;61.90;;;;;;5054201;28;20055;-66
2022/04/11 08:53:22;;;;;;;1.70;1.60;;;14.50;61.90;;;;;;5054397;28;20067;-66
2022/04/11 08:55:49;;;;;;;1.35;1.25;;;14.50;61.80;;;;;;5053975;28;20071;-67
2022/04/11 08:58:15;;;;;;;1.42;1.20;;;14.60;61.90;;;;;;5054116;28;20025;-66
2022/04/11 09:00:40;;;;;;;1.95;1.40;;;14.50;61.90;;;;;;5054108;28;20200;-66
2022/04/11 09:03:07;;;;;;;1.40;1.30;;;14.60;61.90;;;;;;5054113;28;20056;-66
2022/04/11 09:05:34;;;;;;;2.03;1.52;;;14.60;61.80;;;;;;5053512;28;20041;-66
2022/04/11 09:08:00;;;;;;;1.48;1.30;;;14.60;61.70;;;;;;5052498;28;20048;-66
2022/04/11 09:10:37;;;;;;;1.73;1.40;;;14.60;61.70;;;;;;5052324;28;20052;-67
2022/04/11 09:13:06;;;;;;;1.50;1.40;;;14.50;61.60;;;;;;5052559;28;20116;-66
2022/04/11 09:15:44;;;;;;;1.60;1.50;;;14.50;61.70;;;;;;5052915;28;20496;-66
2022/04/11 09:18:10;;;;;;;1.52;1.42;;;14.50;61.70;;;;;;5052105;28;20067;-66
2022/04/11 09:20:39;;;;;;;2.17;1.45;;;14.50;61.70;;;;;;5053304;28;20056;-67
2022/04/11 09:23:20;;;;;;;1.65;1.30;;;14.60;61.70;;;;;;5053948;28;20402;-67
2022/04/11 09:25:46;;;;;;;1.20;1.20;;;14.50;61.50;;;;;;5053145;28;20029;-69
2022/04/11 09:28:12;;;;;;;1.55;1.30;;;14.50;61.50;;;;;;5049829;28;20029;-66
2022/04/11 09:30:40;;;;;;;1.40;1.30;;;14.50;61.50;;;;;;5033870;28;20029;-67
2022/04/11 09:33:07;;;;;;;1.42;1.33;;;14.50;61.50;;;;;;5032657;28;20522;-66
2022/04/11 09:35:38;;;;;;;2.03;1.40;;;14.50;61.60;;;;;;5031327;28;20117;-64
2022/04/11 09:38:13;;;;;;;1.40;1.30;;;14.50;61.70;;;;;;5032435;28;20483;-65
2022/04/11 09:40:45;;;;;;;1.48;1.38;;;14.50;61.70;;;;;;5032467;28;20072;-66
2022/04/11 09:43:13;;;;;;;1.52;1.42;;;14.60;61.70;;;;;;5032887;28;20116;-67
2022/04/11 09:45:44;;;;;;;1.40;1.30;;;14.70;61.70;;;;;;5031755;28;20460;-64
2022/04/11 09:48:14;;;;;;;1.70;1.60;;;14.80;61.60;;;;;;5034431;28;20049;-66
2022/04/11 09:50:40;;;;;;;1.30;1.30;;;14.80;61.40;;;;;;5048799;28;20547;-66
2022/04/11 09:53:07;;;;;;;1.50;1.40;;;14.90;61.30;;;;;;5052834;28;20116;-64
2022/04/11 09:55:34;;;;;;;1.55;1.45;;;15.00;61.20;;;;;;5051586;28;20037;-67
2022/04/11 09:58:02;;;;;;;1.42;1.33;;;15.00;61.10;;;;;;5053067;28;20037;-66
2022/04/11 10:00:29;;;;;;;1.55;1.45;;;15.00;61.00;;;;;;5052947;28;20037;-65
2022/04/11 10:02:57;;;;;;;1.50;1.40;;;15.00;61.00;;;;;;5046414;28;20049;-65
2022/04/11 10:05:24;;;;;;;1.50;1.40;;;15.00;61.00;;;;;;5032637;28;20133;-65
2022/04/11 10:07:54;;;;;;;1.50;1.40;;;15.00;61.00;;;;;;5033121;28;20065;-65
2022/04/11 10:10:21;;;;;;;1.98;1.50;;;15.10;61.00;;;;;;5032967;28;20438;-65
2022/04/11 10:12:53;;;;;;;1.40;1.30;;;15.10;61.00;;;;;;5033234;28;20025;-65
2022/04/11 10:15:22;;;;;;;1.23;1.23;;;15.10;60.90;;;;;;5032828;28;20057;-65
2022/04/11 10:17:53;;;;;;;1.50;1.40;;;15.20;60.90;;;;;;5031471;28;20064;-65
2022/04/11 10:20:29;;;;;;;1.40;1.30;;;15.30;61.30;;;;;;5036341;28;20035;-66
2022/04/11 10:23:06;;;;;;;1.30;1.20;;;15.20;60.60;;;;;;5052789;28;20078;-65
2022/04/11 10:25:43;;;;;;;1.40;1.30;;;15.30;60.60;;;;;;5052624;28;20021;-65
2022/04/11 10:28:25;;;;;;;1.20;1.15;;;15.30;60.50;;;;;;5052455;28;20037;-66
2022/04/11 10:31:10;;;;;;;1.40;1.30;;;15.30;60.50;;;;;;5051514;28;20119;-65
2022/04/11 10:33:52;;;;;;;1.10;1.00;;;15.20;60.40;;;;;;5052459;28;20075;-65
2022/04/11 10:36:29;;;;;;;1.52;1.42;;;15.20;60.40;;;;;;5051949;28;20389;-65
2022/04/11 10:39:28;;;;;;;1.40;1.15;;;15.20;60.50;;;;;;5052235;28;20025;-66
2022/04/11 10:41:57;;;;;;;1.38;1.27;;;15.20;60.40;;;;;;5051009;28;20033;-65
2022/04/11 10:44:54;;;;;;;1.85;1.10;;;15.10;60.50;;;;;;5052286;28;20067;-64
2022/04/11 10:47:29;;;;;;;1.30;1.20;;;15.10;60.40;;;;;;5051217;28;20036;-64
2022/04/11 10:49:58;;;;;;;1.52;1.27;;;15.10;60.60;;;;;;5051297;28;20037;-65
2022/04/11 10:52:46;;;;;;;1.33;1.23;;;15.10;60.50;;;;;;5052555;28;20103;-65
2022/04/11 10:55:19;;;;;;;1.00;1.00;;;15.00;60.40;;;;;;5051515;28;20033;-65
2022/04/11 10:57:56;;;;;;;1.92;1.38;;;15.00;60.40;;;;;;5056600;28;20033;-65
2022/04/11 11:00:33;;;;;;;1.60;1.48;;;14.90;60.50;;;;;;5056294;28;20158;-65
2022/04/11 11:03:02;;;;;;;1.30;1.20;;;14.90;61.30;;;;;;5056551;28;20021;-65
2022/04/11 11:05:39;;;;;;;1.35;1.13;;;15.00;60.70;;;;;;5054652;28;20048;-65
2022/04/11 11:08:11;;;;;;;1.30;1.30;;;15.00;60.70;;;;;;5056150;28;20696;-64
2022/04/11 11:10:52;;;;;;;1.95;1.10;;;15.10;60.70;;;;;;5056417;28;20017;-63
2022/04/11 11:13:36;;;;;;;1.15;1.13;;;15.10;60.50;;;;;;5055951;28;20021;-64
2022/04/11 11:16:07;;;;;;;1.40;1.30;;;15.20;60.40;;;;;;5056038;28;20037;-64
2022/04/11 11:18:51;;;;;;;1.10;1.10;;;15.20;60.40;;;;;;5055956;28;20486;-64
2022/04/11 11:21:19;;;;;;;1.33;1.23;;;15.20;60.40;;;;;;5055882;28;20033;-65
2022/04/11 11:24:03;;;;;;;1.00;1.00;;;15.30;60.40;;;;;;5055975;28;20025;-65
2022/04/11 11:26:46;;;;;;;1.00;1.00;;;15.30;60.20;;;;;;5054178;28;20443;-66
2022/04/11 11:29:25;;;;;;;1.23;1.13;;;15.30;60.10;;;;;;5054417;28;20360;-65
2022/04/11 11:31:53;;;;;;;1.10;1.10;;;15.30;60.10;;;;;;5055797;28;20028;-64
2022/04/11 11:34:22;;;;;;;1.38;1.20;;;15.30;60.10;;;;;;5055713;28;20033;-64
2022/04/11 11:36:56;;;;;;;1.00;1.00;;;15.30;60.70;;;;;;5055730;28;20459;-66
2022/04/11 11:39:24;;;;;;;1.33;1.23;;;15.20;60.00;;;;;;5054068;28;20072;-64
2022/04/11 11:41:53;;;;;;;1.20;1.20;;;15.20;60.10;;;;;;5055589;28;20115;-66
2022/04/11 11:44:20;;;;;;;1.23;1.13;;;15.20;60.20;;;;;;5055523;28;20025;-65
2022/04/11 11:46:58;;;;;;;1.67;1.38;;;15.20;60.30;;;;;;5054397;28;20044;-64
2022/04/11 11:49:25;;;;;;;1.30;1.20;;;15.20;60.30;;;;;;5053792;28;20021;-65
2022/04/11 11:51:51;;;;;;;1.60;1.25;;;15.30;60.40;;;;;;5054047;28;20251;-64
2022/04/11 11:54:38;;;;;;;1.23;1.13;;;15.40;60.30;;;;;;5055221;28;20032;-65
2022/04/11 11:57:22;;;;;;;1.38;1.20;;;15.60;60.10;;;;;;5055339;28;20108;-65
2022/04/11 12:00:01;;;;;;;0.98;0.98;;;15.70;60.00;;;;;;5055441;28;20108;-65
2022/04/11 12:05:27;;;;;;;1.00;1.00;;;15.90;59.60;;;;;;5054992;28;20059;-65
2022/04/11 12:08:02;;;;;;;1.10;1.00;;;16.00;59.50;;;;;;5054157;28;20041;-65
2022/04/11 12:10:28;;;;;;;1.45;1.35;;;16.00;59.40;;;;;;5054811;28;20817;-65
2022/04/11 12:12:54;;;;;;;1.40;1.30;;;16.00;59.40;;;;;;5055247;28;20075;-65
2022/04/11 12:15:21;;;;;;;1.25;1.17;;;16.10;59.30;;;;;;5053412;28;20025;-65
2022/04/11 12:17:49;;;;;;;1.60;1.50;;;16.10;59.20;;;;;;5055093;28;20098;-65
2022/04/11 12:20:16;;;;;;;1.17;1.08;;;16.10;59.20;;;;;;5054327;28;20021;-65
2022/04/11 12:23:03;;;;;;;1.25;1.15;;;16.10;59.10;;;;;;5054660;28;20150;-65
2022/04/11 12:25:31;;;;;;;1.55;1.38;;;16.10;59.10;;;;;;5054840;28;20129;-65
2022/04/11 12:28:19;;;;;;;1.30;1.20;;;16.20;59.30;;;;;;5054707;28;20032;-65
2022/04/11 12:31:06;;;;;;;1.17;1.08;;;16.30;59.00;;;;;;5054619;28;20063;-66
2022/04/11 12:33:35;;;;;;;0.90;0.90;;;16.40;58.90;;;;;;5053072;28;20033;-66
2022/04/11 12:36:12;;;;;;;1.13;1.10;;;16.50;59.00;;;;;;5053455;28;20083;-66
2022/04/11 12:38:51;;;;;;;1.10;1.10;;;16.50;58.80;;;;;;5054765;28;20071;-65
2022/04/11 12:41:29;;;;;;;1.27;1.17;;;16.60;58.80;;;;;;5054323;28;20021;-65
2022/04/11 12:44:16;;;;;;;1.00;1.00;;;16.60;58.60;;;;;;5054244;28;20059;-65
2022/04/11 12:46:56;;;;;;;1.45;1.35;;;16.60;58.60;;;;;;5054577;28;20032;-65
2022/04/11 12:49:23;;;;;;;1.23;1.10;;;16.70;58.50;;;;;;5054154;28;20107;-65
2022/04/11 12:52:02;;;;;;;1.10;1.10;;;16.70;58.50;;;;;;5054275;28;20488;-65
2022/04/11 12:54:41;;;;;;;1.30;1.20;;;16.70;58.30;;;;;;5054306;28;20028;-65